Terminal Aerodrome Forecast
Issued by NWS Bismarck, ND

Home | Current Version | Previous Version | Graphics & Text | Print | Product List | Glossary On
Versions: 1 2 3 4 5 6 7 8 9 10 11 12 13 14 15 16 17 18 19 20 21 22
000
FTUS43 KBIS 020033 AAA
TAFBIS
TAF AMD
KBIS 020033Z 0201/0224 18010KT P6SM SCT060
     FM020700 19004KT P6SM FEW050
     FM020900 18004KT 5SM BR SKC
      TEMPO 0210/0213 1SM BR
     FM021400 15008KT P6SM SKC
     FM022100 16014KT P6SM SCT150=

USA.gov is the U.S. government's official web portal to all federal, state and local government web resources and services.